Time;durP1;ratioP1;P1;durP2;ratioP2;P2;SDS_P1;SDS_P2;PMS_P1;PMS_P2;Temp;Humidity;BMP_temperature;BMP_pressure;BME280_temperature;BME280_humidity;BME280_pressure;Samples;Min_cycle;Max_cycle;Signal;HPM_P1;HPM_P2
2023/06/19 00:01:00;;;;;;;;;;;;;;;21.72;57.20;100658.00;5120005;29;19930;-73
2023/06/19 00:03:31;;;;;;;;;;;;;;;21.59;56.16;100662.31;5121307;29;19916;-74
2023/06/19 00:06:02;;;;;;;;;;;;;;;21.44;56.07;100659.63;5121906;29;19919;-73
2023/06/19 00:08:34;;;;;;;;;;;;;;;21.37;56.69;100660.94;5124419;29;19919;-73
2023/06/19 00:11:05;;;;;;;;;;;;;;;21.31;58.62;100664.81;5124773;29;20360;-73
2023/06/19 00:13:36;;;;;;;;;;;;;;;21.22;59.47;100670.69;5124914;29;19922;-73
2023/06/19 00:16:08;;;;;;;;;;;;;;;21.16;58.99;100684.28;5124937;29;19998;-72
2023/06/19 00:18:41;;;;;;;;;;;;;;;21.10;59.60;100674.88;5125094;29;19923;-73
2023/06/19 00:21:13;;;;;;;;;;;;;;;21.12;58.69;100680.97;5124768;29;19923;-73
2023/06/19 00:23:44;;;;;;;;;;;;;;;20.96;59.00;100685.44;5124427;29;19915;-73
2023/06/19 00:26:15;;;;;;;;;;;;;;;20.88;59.10;100690.31;5108211;29;20430;-72
2023/06/19 00:28:47;;;;;;;;;;;;;;;20.78;62.12;100692.66;5124420;29;19973;-73
2023/06/19 00:31:18;;;;;;;;;;;;;;;20.72;59.37;100691.22;5124390;29;19962;-73
2023/06/19 00:33:50;;;;;;;;;;;;;;;20.63;60.95;100697.00;5124281;29;19977;-72
2023/06/19 00:36:23;;;;;;;;;;;;;;;20.57;60.59;100700.00;5124285;29;19974;-72
2023/06/19 00:38:54;;;;;;;;;;;;;;;20.50;62.27;100702.13;5124435;29;20276;-72
2023/06/19 00:41:27;;;;;;;;;;;;;;;20.43;62.29;100702.53;5124091;29;19919;-73
2023/06/19 00:43:58;;;;;;;;;;;;;;;20.38;61.35;100706.31;5124098;29;19922;-72
2023/06/19 00:46:30;;;;;;;;;;;;;;;20.34;61.77;100714.50;5124105;29;20018;-72
2023/06/19 00:49:01;;;;;;;;;;;;;;;20.30;62.08;100712.97;5123553;29;19974;-72
2023/06/19 00:51:33;;;;;;;;;;;;;;;20.39;61.80;100705.38;5124573;29;19915;-72
2023/06/19 00:54:04;;;;;;;;;;;;;;;20.24;62.45;100716.81;5123915;29;19915;-73
2023/06/19 00:56:37;;;;;;;;;;;;;;;20.21;63.12;100717.81;5124430;29;20279;-73
2023/06/19 00:59:13;;;;;;;;;;;;;;;20.26;62.56;100716.72;5123870;29;19919;-74
2023/06/19 01:01:44;;;;;;;;;;;;;;;20.15;63.66;100725.25;5123703;29;19926;-73
2023/06/19 01:04:15;;;;;;;;;;;;;;;20.11;64.31;100731.63;5123994;29;20335;-73
2023/06/19 01:06:57;;;;;;;;;;;;;;;20.11;64.65;100723.69;5123746;29;19915;-73
2023/06/19 01:09:31;;;;;;;;;;;;;;;20.04;65.64;100724.03;5123994;29;19915;-72
2023/06/19 01:12:08;;;;;;;;;;;;;;;20.03;65.85;100718.81;5123626;29;19969;-72
2023/06/19 01:14:46;;;;;;;;;;;;;;;20.01;63.70;100732.13;5124105;29;20351;-72
2023/06/19 01:17:17;;;;;;;;;;;;;;;20.04;64.47;100731.97;5123069;29;20314;-72
2023/06/19 01:19:50;;;;;;;;;;;;;;;20.11;66.59;100731.63;5123461;29;19915;-73
2023/06/19 01:22:28;;;;;;;;;;;;;;;20.09;65.52;100731.69;5123903;29;20351;-72
2023/06/19 01:24:59;;;;;;;;;;;;;;;20.12;66.82;100728.88;5123750;29;19989;-73
2023/06/19 01:27:31;;;;;;;;;;;;;;;19.97;67.76;100729.72;5123603;29;19923;-73
2023/06/19 01:30:03;;;;;;;;;;;;;;;19.85;67.34;100736.50;5123200;29;19952;-72
2023/06/19 01:32:56;;;;;;;;;;;;;;;19.80;67.72;100730.59;5123000;29;20394;-72
2023/06/19 01:35:29;;;;;;;;;;;;;;;19.73;69.42;100731.84;5123436;29;20271;-72
2023/06/19 01:38:01;;;;;;;;;;;;;;;19.67;69.17;100740.94;5123418;29;19923;-72
2023/06/19 01:40:32;;;;;;;;;;;;;;;19.72;68.39;100740.69;5123017;29;20279;-73
2023/06/19 01:43:05;;;;;;;;;;;;;;;19.65;68.60;100740.16;5123034;29;19919;-73
2023/06/19 01:45:36;;;;;;;;;;;;;;;19.55;68.69;100747.72;5122743;29;19922;-73
2023/06/19 01:48:08;;;;;;;;;;;;;;;19.52;70.63;100750.50;5122912;29;19915;-73
2023/06/19 01:50:39;;;;;;;;;;;;;;;19.46;70.24;100756.97;5123735;29;19930;-73
2023/06/19 01:53:11;;;;;;;;;;;;;;;19.38;69.83;100761.75;5123260;29;19923;-73
2023/06/19 01:55:42;;;;;;;;;;;;;;;19.58;70.65;100770.50;5122804;29;19919;-72
2023/06/19 01:58:14;;;;;;;;;;;;;;;19.42;70.30;100757.22;5122963;29;19938;-72
2023/06/19 02:00:45;;;;;;;;;;;;;;;19.36;71.27;100762.78;5122683;29;19915;-73
2023/06/19 02:03:16;;;;;;;;;;;;;;;19.21;71.12;100770.53;5122611;29;19986;-72
2023/06/19 02:05:47;;;;;;;;;;;;;;;19.31;73.10;100763.88;5122180;29;19919;-72
2023/06/19 02:08:19;;;;;;;;;;;;;;;19.21;71.84;100767.91;5121505;29;19960;-73
2023/06/19 02:10:50;;;;;;;;;;;;;;;19.19;73.32;100780.34;5122388;29;19975;-73
2023/06/19 02:13:21;;;;;;;;;;;;;;;19.18;72.85;100781.28;5122739;29;20023;-73
2023/06/19 02:15:53;;;;;;;;;;;;;;;19.22;73.43;100780.16;5122528;29;19919;-72
2023/06/19 02:18:24;;;;;;;;;;;;;;;19.11;73.26;100780.72;5122019;29;19942;-74
2023/06/19 02:20:55;;;;;;;;;;;;;;;19.10;75.00;100778.16;5121981;29;19919;-73
2023/06/19 02:23:27;;;;;;;;;;;;;;;19.08;74.75;100782.66;5121936;29;19926;-74
2023/06/19 02:25:58;;;;;;;;;;;;;;;18.90;76.05;100782.59;5121784;29;19915;-74
2023/06/19 02:28:29;;;;;;;;;;;;;;;18.83;74.65;100777.66;5121908;29;19990;-74
2023/06/19 02:31:01;;;;;;;;;;;;;;;18.77;74.36;100777.03;5120831;29;19923;-73
2023/06/19 02:33:32;;;;;;;;;;;;;;;18.74;75.65;100786.84;5122088;29;19973;-73
2023/06/19 02:36:04;;;;;;;;;;;;;;;18.72;76.76;100776.38;5121093;29;19955;-73
2023/06/19 02:38:35;;;;;;;;;;;;;;;18.65;75.97;100780.22;5121632;29;19922;-73
2023/06/19 02:41:06;;;;;;;;;;;;;;;18.68;76.40;100776.59;5122410;29;20256;-74
2023/06/19 02:43:38;;;;;;;;;;;;;;;18.74;77.74;100782.44;5122201;29;19926;-73
2023/06/19 02:46:10;;;;;;;;;;;;;;;18.61;76.78;100780.44;5121828;29;19979;-74
2023/06/19 02:48:41;;;;;;;;;;;;;;;18.70;78.16;100780.00;5105667;29;20252;-73
2023/06/19 02:51:12;;;;;;;;;;;;;;;18.57;78.33;100780.56;5121793;29;19919;-73
2023/06/19 02:53:43;;;;;;;;;;;;;;;18.51;77.34;100782.63;5121408;29;20430;-73
2023/06/19 02:56:15;;;;;;;;;;;;;;;18.45;77.52;100782.91;5122404;29;19923;-73
2023/06/19 02:58:46;;;;;;;;;;;;;;;18.42;78.82;100783.94;5121687;29;19963;-73
2023/06/19 03:01:17;;;;;;;;;;;;;;;18.37;78.10;100794.69;5120309;29;19926;-72
2023/06/19 03:03:48;;;;;;;;;;;;;;;18.36;79.89;100790.34;5121904;29;20002;-72
2023/06/19 03:06:20;;;;;;;;;;;;;;;18.33;77.61;100790.47;5121587;29;19926;-73
2023/06/19 03:08:51;;;;;;;;;;;;;;;18.30;80.32;100795.03;5121599;29;19973;-72
2023/06/19 03:11:22;;;;;;;;;;;;;;;18.27;81.52;100797.81;5121523;29;19915;-72
2023/06/19 03:13:54;;;;;;;;;;;;;;;18.34;81.12;100801.91;5121221;29;19962;-72
2023/06/19 03:16:25;;;;;;;;;;;;;;;18.23;83.05;100803.22;5121484;29;19922;-73
2023/06/19 03:18:56;;;;;;;;;;;;;;;18.28;80.64;100804.81;5121484;29;19941;-72
2023/06/19 03:21:28;;;;;;;;;;;;;;;18.21;82.02;100805.06;5121173;29;20016;-73
2023/06/19 03:23:59;;;;;;;;;;;;;;;18.19;82.43;100808.69;5121355;29;19919;-73
2023/06/19 03:26:30;;;;;;;;;;;;;;;18.15;83.16;100807.97;5122176;29;19919;-73
2023/06/19 03:29:02;;;;;;;;;;;;;;;18.16;83.85;100816.75;5121280;29;19961;-73
2023/06/19 03:31:33;;;;;;;;;;;;;;;18.19;84.15;100811.34;5121184;29;19919;-72
2023/06/19 03:34:04;;;;;;;;;;;;;;;18.15;82.41;100807.97;5121394;29;19971;-73
2023/06/19 03:36:35;;;;;;;;;;;;;;;18.12;86.41;100807.25;5120974;29;19923;-73
2023/06/19 03:39:07;;;;;;;;;;;;;;;18.10;85.36;100809.13;5121575;29;19919;-73
2023/06/19 03:41:38;;;;;;;;;;;;;;;18.12;83.12;100813.38;5125040;29;19927;-73
2023/06/19 03:44:09;;;;;;;;;;;;;;;18.11;84.08;100821.38;5124757;29;19919;-73
2023/06/19 03:46:42;;;;;;;;;;;;;;;18.14;83.15;100835.28;5124928;29;20009;-73
2023/06/19 03:49:13;;;;;;;;;;;;;;;18.20;83.14;100831.53;5123851;29;20010;-73
2023/06/19 03:51:45;;;;;;;;;;;;;;;18.26;82.74;100822.47;5125064;29;20434;-73
2023/06/19 03:54:16;;;;;;;;;;;;;;;18.40;83.45;100835.91;5125271;29;19919;-73
2023/06/19 03:56:47;;;;;;;;;;;;;;;18.39;84.67;100842.97;5124809;29;19919;-73
2023/06/19 03:59:19;;;;;;;;;;;;;;;18.56;83.55;100844.88;5124603;29;19942;-74
2023/06/19 04:01:50;;;;;;;;;;;;;;;18.56;85.13;100870.41;5125168;29;19915;-72
2023/06/19 04:04:21;;;;;;;;;;;;;;;18.53;86.70;100844.13;5124672;29;19969;-74
2023/06/19 04:06:52;;;;;;;;;;;;;;;18.69;84.21;100854.84;5125379;29;19915;-72
2023/06/19 04:09:24;;;;;;;;;;;;;;;18.58;86.87;100858.00;5124508;29;19946;-73
2023/06/19 04:11:55;;;;;;;;;;;;;;;18.63;85.02;100871.84;5124205;29;19919;-73
2023/06/19 04:14:26;;;;;;;;;;;;;;;18.63;85.90;100861.28;5124454;29;19925;-72
2023/06/19 04:16:57;;;;;;;;;;;;;;;18.67;85.95;100862.84;5124675;29;19954;-72
2023/06/19 04:19:29;;;;;;;;;;;;;;;18.88;85.54;100871.59;5125172;29;19926;-73
2023/06/19 04:22:00;;;;;;;;;;;;;;;18.85;85.08;100879.69;5124293;29;19934;-72
2023/06/19 04:24:31;;;;;;;;;;;;;;;18.81;86.77;100872.78;5124797;29;19919;-72
2023/06/19 04:27:02;;;;;;;;;;;;;;;18.78;85.82;100880.84;5123816;29;19919;-73
2023/06/19 04:29:34;;;;;;;;;;;;;;;18.82;85.26;100885.09;5124208;29;20248;-73
2023/06/19 04:32:11;;;;;;;;;;;;;;;18.77;87.38;100882.66;5124166;29;19919;-73
2023/06/19 04:34:45;;;;;;;;;;;;;;;18.85;85.81;100894.66;5123658;29;19926;-73
2023/06/19 04:37:19;;;;;;;;;;;;;;;18.80;86.64;100884.28;5123951;29;20093;-72
2023/06/19 04:39:50;;;;;;;;;;;;;;;18.82;86.40;100890.38;5123902;29;19977;-72
2023/06/19 04:42:21;;;;;;;;;;;;;;;18.83;86.54;100889.41;5123874;29;19962;-72
2023/06/19 04:44:52;;;;;;;;;;;;;;;18.91;85.83;100894.38;5123566;29;19915;-73
2023/06/19 04:47:24;;;;;;;;;;;;;;;18.92;86.13;100896.13;5123731;29;19922;-73
2023/06/19 04:49:55;;;;;;;;;;;;;;;18.91;85.90;100897.03;5123831;29;19998;-73
2023/06/19 04:52:26;;;;;;;;;;;;;;;18.93;87.03;100896.03;5123013;29;19926;-74
2023/06/19 04:54:58;;;;;;;;;;;;;;;18.99;87.28;100905.44;5122495;29;20402;-73
2023/06/19 04:57:29;;;;;;;;;;;;;;;18.93;85.80;100903.09;5122398;29;19915;-72
2023/06/19 05:00:00;;;;;;;;;;;;;;;19.00;86.94;100899.25;5123839;29;19938;-73
2023/06/19 05:02:35;;;;;;;;;;;;;;;19.07;85.37;100903.31;5123457;29;20274;-73
2023/06/19 05:05:07;;;;;;;;;;;;;;;19.20;85.66;100897.47;5123407;29;19919;-73
2023/06/19 05:07:38;;;;;;;;;;;;;;;19.13;85.80;100907.47;5121800;29;19922;-72
2023/06/19 05:10:10;;;;;;;;;;;;;;;19.22;85.79;100906.16;5122011;29;19915;-72
2023/06/19 05:12:41;;;;;;;;;;;;;;;19.19;85.82;100907.19;5123328;29;20379;-73
2023/06/19 05:15:13;;;;;;;;;;;;;;;19.31;85.70;100905.75;5123268;29;20009;-72
2023/06/19 05:17:46;;;;;;;;;;;;;;;19.28;86.25;100919.94;5123225;29;19982;-74
2023/06/19 05:20:17;;;;;;;;;;;;;;;19.27;85.50;100917.38;5122969;29;19963;-73
2023/06/19 05:22:48;;;;;;;;;;;;;;;19.42;85.45;100921.09;5123988;29;19919;-74
2023/06/19 05:25:19;;;;;;;;;;;;;;;19.37;87.40;100917.78;5123032;29;19926;-74
2023/06/19 05:27:51;;;;;;;;;;;;;;;19.45;86.01;100924.44;5121841;29;19929;-74
2023/06/19 05:30:22;;;;;;;;;;;;;;;19.56;85.67;100931.88;5122948;29;19943;-73
2023/06/19 05:32:53;;;;;;;;;;;;;;;19.49;85.38;100930.44;5122855;29;19950;-73
2023/06/19 05:35:25;;;;;;;;;;;;;;;19.42;86.27;100929.88;5122483;29;19915;-72
2023/06/19 05:37:57;;;;;;;;;;;;;;;19.30;87.81;100930.44;5122777;29;19919;-74
2023/06/19 05:40:28;;;;;;;;;;;;;;;19.28;88.57;100938.44;5122366;29;19926;-73
2023/06/19 05:42:59;;;;;;;;;;;;;;;19.36;88.07;100940.72;5123187;29;20275;-74
2023/06/19 05:45:31;;;;;;;;;;;;;;;19.40;86.62;100933.50;5122863;29;20005;-74
2023/06/19 05:48:02;;;;;;;;;;;;;;;19.40;87.53;100942.31;5122319;29;20363;-73
2023/06/19 05:50:33;;;;;;;;;;;;;;;19.47;87.00;100951.66;5122598;29;19919;-74
2023/06/19 05:53:05;;;;;;;;;;;;;;;19.51;86.42;100944.44;5122497;29;20013;-72
2023/06/19 05:55:36;;;;;;;;;;;;;;;19.46;86.73;100935.88;5122539;29;19923;-73
2023/06/19 05:58:07;;;;;;;;;;;;;;;19.54;85.82;100939.00;5121511;29;19919;-73
2023/06/19 06:00:38;;;;;;;;;;;;;;;19.57;85.85;100941.50;5121153;29;20275;-71
2023/06/19 06:03:10;;;;;;;;;;;;;;;19.62;85.44;100939.47;5121604;29;19919;-72
2023/06/19 06:05:43;;;;;;;;;;;;;;;19.63;85.15;100956.22;5120737;29;19919;-72
2023/06/19 06:08:14;;;;;;;;;;;;;;;19.69;84.03;100953.28;5122797;29;20388;-72
2023/06/19 06:10:46;;;;;;;;;;;;;;;19.70;83.79;100954.97;5120917;29;19919;-71
2023/06/19 06:13:17;;;;;;;;;;;;;;;19.74;83.79;100961.84;5122022;29;19915;-71
2023/06/19 06:15:50;;;;;;;;;;;;;;;19.83;82.80;100979.09;5122048;29;20355;-71
2023/06/19 06:18:21;;;;;;;;;;;;;;;19.89;81.73;100980.59;5121883;29;19923;-71
2023/06/19 06:20:53;;;;;;;;;;;;;;;19.85;81.05;100979.88;5121758;29;19939;-70
2023/06/19 06:23:24;;;;;;;;;;;;;;;19.77;79.77;100982.91;5121788;29;19949;-71
2023/06/19 06:26:01;;;;;;;;;;;;;;;19.73;79.62;100991.03;5121155;29;19921;-71
2023/06/19 06:28:32;;;;;;;;;;;;;;;19.71;78.87;100987.59;5121299;29;20157;-71
2023/06/19 06:31:03;;;;;;;;;;;;;;;19.75;78.72;100976.78;5122326;29;20031;-71
2023/06/19 06:33:35;;;;;;;;;;;;;;;19.76;78.27;100977.69;5121953;29;20393;-71
2023/06/19 06:36:06;;;;;;;;;;;;;;;19.79;78.35;101001.34;5121780;29;19919;-71
2023/06/19 06:38:37;;;;;;;;;;;;;;;19.87;77.88;100996.53;5121614;29;20290;-71
2023/06/19 06:41:09;;;;;;;;;;;;;;;19.90;77.85;101006.09;5122412;29;19926;-71
2023/06/19 06:43:42;;;;;;;;;;;;;;;20.00;77.27;101016.16;5121541;29;19950;-71
2023/06/19 06:46:14;;;;;;;;;;;;;;;20.12;76.48;101009.41;5121783;29;19962;-71
2023/06/19 06:48:45;;;;;;;;;;;;;;;20.28;76.18;101012.16;5121464;29;19915;-71
2023/06/19 06:51:16;;;;;;;;;;;;;;;20.52;75.12;101025.94;5121648;29;19930;-71
2023/06/19 06:53:48;;;;;;;;;;;;;;;20.70;74.05;101021.53;5121381;29;19926;-72
2023/06/19 06:56:19;;;;;;;;;;;;;;;20.80;72.91;101021.06;5120602;29;19922;-71
2023/06/19 06:58:50;;;;;;;;;;;;;;;20.76;72.24;101015.91;5121226;29;20342;-72
2023/06/19 07:01:21;;;;;;;;;;;;;;;20.92;71.77;101029.22;5121516;29;19967;-72
2023/06/19 07:03:53;;;;;;;;;;;;;;;21.03;71.63;101030.47;5121262;29;19926;-71
2023/06/19 07:06:25;;;;;;;;;;;;;;;20.85;71.69;101027.84;5121140;29;19966;-72
2023/06/19 07:08:56;;;;;;;;;;;;;;;20.75;70.88;101031.91;5121089;29;19914;-71
2023/06/19 07:11:27;;;;;;;;;;;;;;;20.84;71.18;101038.53;5119623;29;19919;-72
2023/06/19 07:13:58;;;;;;;;;;;;;;;20.94;70.23;101039.75;5121085;29;19918;-72
2023/06/19 07:16:29;;;;;;;;;;;;;;;20.95;70.28;101041.47;5121026;29;19938;-71
2023/06/19 07:19:01;;;;;;;;;;;;;;;20.99;69.18;101043.00;5120902;29;19974;-72
2023/06/19 07:21:32;;;;;;;;;;;;;;;20.84;69.66;101039.38;5120950;29;19963;-72
2023/06/19 07:24:04;;;;;;;;;;;;;;;21.02;69.17;101042.84;5121348;29;19954;-72
2023/06/19 07:26:35;;;;;;;;;;;;;;;21.21;68.32;101060.44;5120850;29;19923;-71
2023/06/19 07:29:07;;;;;;;;;;;;;;;21.19;68.58;101057.88;5119643;29;20295;-73
2023/06/19 07:31:38;;;;;;;;;;;;;;;21.56;68.04;101050.63;5121240;29;19922;-72
2023/06/19 07:34:09;;;;;;;;;;;;;;;21.86;66.60;101052.50;5121336;29;19923;-72
2023/06/19 07:36:42;;;;;;;;;;;;;;;21.94;65.80;101062.69;5120941;29;20323;-71
2023/06/19 07:39:13;;;;;;;;;;;;;;;22.11;66.35;101061.75;5119545;29;20037;-72
2023/06/19 07:41:45;;;;;;;;;;;;;;;22.25;65.90;101055.66;5121076;29;19969;-71
2023/06/19 07:44:17;;;;;;;;;;;;;;;22.39;64.42;101069.88;5120622;29;19998;-72
2023/06/19 07:46:49;;;;;;;;;;;;;;;22.39;64.07;101063.69;5121001;29;19934;-72
2023/06/19 07:49:20;;;;;;;;;;;;;;;22.15;64.59;101057.97;5121063;29;19919;-72
2023/06/19 07:51:51;;;;;;;;;;;;;;;22.19;64.10;101073.66;5121080;29;19919;-71
2023/06/19 07:54:22;;;;;;;;;;;;;;;21.87;64.44;101051.56;5120438;29;20347;-72
2023/06/19 07:56:54;;;;;;;;;;;;;;;22.17;64.43;101064.91;5120718;29;19919;-72
2023/06/19 07:59:25;;;;;;;;;;;;;;;22.37;63.39;101061.13;5120898;29;19970;-73
2023/06/19 08:01:56;;;;;;;;;;;;;;;22.46;62.97;101058.88;5120167;29;19927;-71
2023/06/19 08:04:27;;;;;;;;;;;;;;;22.44;62.24;101061.63;5120601;29;20364;-71
2023/06/19 08:06:58;;;;;;;;;;;;;;;22.45;63.05;101063.34;5120571;29;19949;-72
2023/06/19 08:09:30;;;;;;;;;;;;;;;22.70;61.77;101062.78;5118814;29;19915;-72
2023/06/19 08:12:02;;;;;;;;;;;;;;;22.77;61.45;101074.72;5120349;29;19930;-73
2023/06/19 08:14:33;;;;;;;;;;;;;;;22.67;61.05;101078.03;5120391;29;19915;-75
2023/06/19 08:17:05;;;;;;;;;;;;;;;22.30;60.88;101077.50;5120277;29;19927;-74
2023/06/19 08:19:38;;;;;;;;;;;;;;;22.35;60.80;101067.50;5120578;29;20282;-74
2023/06/19 08:22:10;;;;;;;;;;;;;;;22.38;60.89;101073.47;5120349;29;20371;-74
2023/06/19 08:24:41;;;;;;;;;;;;;;;22.25;61.41;101071.56;5120664;29;19919;-75
2023/06/19 08:27:12;;;;;;;;;;;;;;;22.55;61.20;101069.81;5121629;29;19919;-74
2023/06/19 08:29:44;;;;;;;;;;;;;;;22.63;60.74;101068.53;5123593;29;20009;-74
2023/06/19 08:32:15;;;;;;;;;;;;;;;22.80;59.58;101075.50;5124275;29;20006;-74
2023/06/19 08:34:47;;;;;;;;;;;;;;;23.03;58.83;101079.44;5124045;29;20389;-76
2023/06/19 08:37:18;;;;;;;;;;;;;;;23.19;59.22;101074.94;5123826;29;19919;-76
2023/06/19 08:39:49;;;;;;;;;;;;;;;23.29;57.62;101089.34;5124377;29;19918;-76
2023/06/19 08:42:21;;;;;;;;;;;;;;;23.22;58.42;101095.16;5123826;29;20010;-76
2023/06/19 08:44:53;;;;;;;;;;;;;;;23.20;58.85;101102.38;5123667;29;19995;-76
2023/06/19 08:47:28;;;;;;;;;;;;;;;23.44;58.66;101098.22;5123733;29;19947;-75
2023/06/19 08:50:00;;;;;;;;;;;;;;;23.73;57.90;101107.97;5123445;29;19919;-76
2023/06/19 08:52:31;;;;;;;;;;;;;;;23.84;56.80;101103.72;5123483;29;20010;-75
2023/06/19 08:55:03;;;;;;;;;;;;;;;23.89;56.73;101108.72;5123149;29;19985;-76
2023/06/19 08:57:37;;;;;;;;;;;;;;;24.03;55.94;101116.69;5123345;29;19919;-75
2023/06/19 09:00:10;;;;;;;;;;;;;;;24.31;54.04;101112.25;5123637;29;19997;-75
2023/06/19 09:02:43;;;;;;;;;;;;;;;24.45;53.45;101115.81;5123304;29;20294;-78
2023/06/19 09:05:15;;;;;;;;;;;;;;;24.34;54.06;101116.50;5122295;29;19915;-76
2023/06/19 09:07:54;;;;;;;;;;;;;;;24.41;54.00;101112.50;5124046;29;20283;-76
2023/06/19 09:10:25;;;;;;;;;;;;;;;24.13;53.33;101108.13;5123288;29;19957;-77
2023/06/19 09:13:00;;;;;;;;;;;;;;;23.80;54.31;101109.31;5123345;29;19962;-75
2023/06/19 09:15:32;;;;;;;;;;;;;;;24.04;53.60;101122.91;5123417;29;20359;-74
2023/06/19 09:18:07;;;;;;;;;;;;;;;23.82;54.66;101121.56;5122957;29;19915;-77
2023/06/19 09:20:43;;;;;;;;;;;;;;;23.89;54.80;101121.19;5123066;29;19915;-76
2023/06/19 09:23:17;;;;;;;;;;;;;;;23.81;54.16;101129.63;5122854;29;19941;-77
2023/06/19 09:25:52;;;;;;;;;;;;;;;23.67;53.17;101146.50;5122859;29;19915;-75
2023/06/19 09:28:25;;;;;;;;;;;;;;;23.89;53.61;101138.03;5123450;29;20371;-74
2023/06/19 09:30:57;;;;;;;;;;;;;;;23.80;52.97;101138.59;5122868;29;20390;-76
2023/06/19 09:33:29;;;;;;;;;;;;;;;23.87;54.18;101136.44;5122808;29;20314;-75
2023/06/19 09:36:02;;;;;;;;;;;;;;;24.07;52.61;101146.66;5122979;29;20260;-75
2023/06/19 09:38:34;;;;;;;;;;;;;;;24.41;51.59;101147.16;5121721;29;20001;-76
2023/06/19 09:41:06;;;;;;;;;;;;;;;24.36;50.37;101149.25;5122703;29;19915;-77
2023/06/19 09:43:37;;;;;;;;;;;;;;;24.10;51.22;101153.59;5122843;29;19922;-77
2023/06/19 09:46:09;;;;;;;;;;;;;;;24.12;50.64;101141.91;5122949;29;19915;-76
2023/06/19 09:48:42;;;;;;;;;;;;;;;24.51;50.05;101142.06;5122736;29;20006;-75
2023/06/19 09:51:28;;;;;;;;;;;;;;;25.00;49.43;101149.47;5122095;29;19915;-76
2023/06/19 09:54:00;;;;;;;;;;;;;;;24.91;49.71;101147.44;5121816;29;19985;-77
2023/06/19 09:56:32;;;;;;;;;;;;;;;25.14;48.11;101145.00;5123001;29;20025;-78
2023/06/19 09:59:04;;;;;;;;;;;;;;;25.09;48.42;101146.16;5122683;29;19998;-76
2023/06/19 10:01:36;;;;;;;;;;;;;;;25.37;48.17;101149.63;5122571;29;19922;-77
2023/06/19 10:04:10;;;;;;;;;;;;;;;25.61;48.40;101146.22;5122369;29;19915;-76
2023/06/19 10:06:43;;;;;;;;;;;;;;;25.34;47.61;101157.00;5122059;29;19919;-77
2023/06/19 10:09:17;;;;;;;;;;;;;;;25.64;47.97;101151.34;5122276;29;20007;-76
2023/06/19 10:11:52;;;;;;;;;;;;;;;26.02;44.20;101158.47;5122532;29;20318;-76
2023/06/19 10:14:24;;;;;;;;;;;;;;;26.90;42.47;101157.34;5121677;29;20279;-77
2023/06/19 10:16:55;;;;;;;;;;;;;;;27.65;41.44;101161.41;5121854;29;19919;-75
2023/06/19 10:19:27;;;;;;;;;;;;;;;28.35;40.38;101149.53;5122350;29;20283;-75
2023/06/19 10:21:58;;;;;;;;;;;;;;;28.34;39.84;101147.81;5122217;29;19914;-76
2023/06/19 10:24:29;;;;;;;;;;;;;;;28.49;38.79;101153.72;5121937;29;19941;-78
2023/06/19 10:27:01;;;;;;;;;;;;;;;28.21;39.67;101155.16;5122518;29;19919;-74
2023/06/19 10:29:39;;;;;;;;;;;;;;;27.73;40.22;101161.66;5122080;29;19915;-76
2023/06/19 10:32:10;;;;;;;;;;;;;;;28.12;39.19;101158.59;5121962;29;20266;-76
2023/06/19 10:34:45;;;;;;;;;;;;;;;28.90;38.14;101160.19;5121710;29;19915;-76
2023/06/19 10:37:17;;;;;;;;;;;;;;;29.71;35.89;101164.91;5121766;29;19915;-76
2023/06/19 10:39:48;;;;;;;;;;;;;;;30.19;35.78;101163.38;5121773;29;19921;-76
2023/06/19 10:42:20;;;;;;;;;;;;;;;29.31;35.80;101171.06;5121208;29;19915;-75
2023/06/19 10:44:58;;;;;;;;;;;;;;;29.32;37.56;101164.72;5121532;29;19923;-76
2023/06/19 10:47:29;;;;;;;;;;;;;;;28.34;37.18;101157.69;5120548;29;19915;-76
2023/06/19 10:50:02;;;;;;;;;;;;;;;28.13;38.04;101169.19;5120875;29;20363;-76
2023/06/19 10:52:33;;;;;;;;;;;;;;;27.35;39.17;101164.66;5121478;29;19946;-75
2023/06/19 10:55:05;;;;;;;;;;;;;;;27.36;40.55;101150.31;5121790;29;20320;-75
2023/06/19 10:57:36;;;;;;;;;;;;;;;27.67;39.38;101148.75;5121609;29;19942;-77
2023/06/19 11:00:14;;;;;;;;;;;;;;;27.46;40.00;101146.78;5120050;29;19915;-76
2023/06/19 11:02:45;;;;;;;;;;;;;;;26.95;41.45;101143.63;5121507;29;20381;-76
2023/06/19 11:05:19;;;;;;;;;;;;;;;27.02;41.28;101145.72;5121186;29;19918;-76
2023/06/19 11:07:51;;;;;;;;;;;;;;;27.75;39.06;101145.47;5121143;29;19922;-77
2023/06/19 11:10:23;;;;;;;;;;;;;;;28.48;37.61;101137.75;5119847;29;20442;-77
2023/06/19 11:12:56;;;;;;;;;;;;;;;29.95;35.24;101150.31;5121389;29;19958;-76
2023/06/19 11:15:34;;;;;;;;;;;;;;;30.09;34.02;101136.47;5120724;29;19914;-76
2023/06/19 11:18:05;;;;;;;;;;;;;;;30.25;34.08;101149.34;5121191;29;20351;-77
2023/06/19 11:20:47;;;;;;;;;;;;;;;31.69;35.19;101138.75;5121138;29;19919;-78
2023/06/19 11:23:26;;;;;;;;;;;;;;;32.45;31.83;101130.31;5121150;29;19927;-77
2023/06/19 11:26:04;;;;;;;;;;;;;;;31.95;30.05;101144.28;5121773;29;19915;-76
2023/06/19 11:28:35;;;;;;;;;;;;;;;32.88;29.61;101141.34;5125321;29;19971;-76
2023/06/19 11:31:07;;;;;;;;;;;;;;;34.00;28.93;101141.47;5128077;29;19919;-74
2023/06/19 11:33:38;;;;;;;;;;;;;;;34.82;28.36;101150.56;5128557;29;19987;-77
2023/06/19 11:36:09;;;;;;;;;;;;;;;35.01;29.18;101140.41;5125629;29;20347;-77
2023/06/19 11:38:41;;;;;;;;;;;;;;;34.73;26.52;101138.03;5122305;29;20006;-75
2023/06/19 11:41:12;;;;;;;;;;;;;;;34.59;28.69;101133.31;5122385;29;19919;-77
2023/06/19 11:43:44;;;;;;;;;;;;;;;35.09;29.13;101131.41;5121346;29;19919;-76
2023/06/19 11:46:15;;;;;;;;;;;;;;;35.19;28.04;101134.78;5121145;29;19915;-76
2023/06/19 11:48:47;;;;;;;;;;;;;;;34.51;26.90;101126.84;5120552;29;19921;-77
2023/06/19 11:51:18;;;;;;;;;;;;;;;34.62;27.28;101125.69;5120977;29;19950;-77
2023/06/19 11:53:49;;;;;;;;;;;;;;;35.55;26.64;101127.06;5120937;29;20379;-78
2023/06/19 11:56:21;;;;;;;;;;;;;;;36.82;25.47;101124.09;5121078;29;19962;-77
2023/06/19 11:58:52;;;;;;;;;;;;;;;35.97;24.88;101112.28;5120612;29;19963;-77
2023/06/19 12:01:23;;;;;;;;;;;;;;;36.02;25.45;101108.19;5120816;29;19919;-76
2023/06/19 12:03:54;;;;;;;;;;;;;;;35.47;26.47;101109.97;5124917;29;19915;-77
2023/06/19 12:06:26;;;;;;;;;;;;;;;36.80;25.79;101104.38;5124450;29;20017;-77
2023/06/19 12:08:58;;;;;;;;;;;;;;;38.49;24.58;101123.47;5108298;29;19955;-76
2023/06/19 12:11:29;;;;;;;;;;;;;;;38.31;21.52;101118.50;5124356;29;19974;-77
2023/06/19 12:14:00;;;;;;;;;;;;;;;37.93;23.00;101126.03;5124023;29;20405;-77
2023/06/19 12:16:31;;;;;;;;;;;;;;;37.91;21.54;101111.78;5124707;29;19930;-76
2023/06/19 12:19:03;;;;;;;;;;;;;;;37.49;22.19;101124.22;5123364;29;19938;-77
2023/06/19 12:21:34;;;;;;;;;;;;;;;37.69;21.31;101130.81;5123350;29;19926;-78
2023/06/19 12:24:06;;;;;;;;;;;;;;;37.19;21.08;101129.63;5124756;29;19926;-77
2023/06/19 12:26:37;;;;;;;;;;;;;;;35.83;23.24;101134.75;5123729;29;20005;-77
2023/06/19 12:29:09;;;;;;;;;;;;;;;36.76;23.22;101132.09;5123949;29;20010;-76
2023/06/19 12:31:40;;;;;;;;;;;;;;;36.33;24.30;101127.19;5124189;29;19919;-76
2023/06/19 12:34:11;;;;;;;;;;;;;;;36.37;24.12;101123.06;5107031;29;20409;-76
2023/06/19 12:36:42;;;;;;;;;;;;;;;36.99;23.17;101124.75;5123975;29;19915;-77
2023/06/19 12:39:16;;;;;;;;;;;;;;;36.73;22.38;101119.75;5122785;29;19925;-78
2023/06/19 12:41:47;;;;;;;;;;;;;;;37.71;21.43;101128.72;5124416;29;19919;-78
2023/06/19 12:44:21;;;;;;;;;;;;;;;38.29;21.90;101128.75;5125295;29;19926;-78
2023/06/19 12:46:52;;;;;;;;;;;;;;;36.21;22.68;101115.00;5126531;29;19954;-79
2023/06/19 12:49:23;;;;;;;;;;;;;;;34.43;24.95;101105.19;5128418;29;20282;-77
2023/06/19 12:51:55;;;;;;;;;;;;;;;35.45;25.14;101104.72;5129781;29;19919;-77
2023/06/19 12:54:27;;;;;;;;;;;;;;;37.05;22.28;101113.13;5127891;29;19915;-78
2023/06/19 12:56:58;;;;;;;;;;;;;;;36.45;22.71;101103.16;5123155;29;19971;-79
2023/06/19 12:59:29;;;;;;;;;;;;;;;36.24;25.10;101101.13;5123813;29;20427;-77